sensor_id;sensor_type;location;lat;lon;timestamp;P1;durP1;ratioP1;P2;durP2;ratioP2
45970;SDS011;31681;48.982;8.394;2023-11-19T00:00:46;1.52;;;0.90;;
45970;SDS011;31681;48.982;8.394;2023-11-19T00:03:12;1.52;;;0.93;;
45970;SDS011;31681;48.982;8.394;2023-11-19T00:05:38;0.80;;;0.75;;
45970;SDS011;31681;48.982;8.394;2023-11-19T00:08:03;0.70;;;0.70;;
45970;SDS011;31681;48.982;8.394;2023-11-19T00:10:29;0.85;;;0.75;;
45970;SDS011;31681;48.982;8.394;2023-11-19T00:12:55;0.93;;;0.60;;
45970;SDS011;31681;48.982;8.394;2023-11-19T00:15:22;0.65;;;0.65;;
45970;SDS011;31681;48.982;8.394;2023-11-19T00:17:49;0.70;;;0.68;;
45970;SDS011;31681;48.982;8.394;2023-11-19T00:20:15;1.50;;;0.70;;
45970;SDS011;31681;48.982;8.394;2023-11-19T00:22:41;0.70;;;0.70;;
45970;SDS011;31681;48.982;8.394;2023-11-19T00:25:07;0.80;;;0.73;;
45970;SDS011;31681;48.982;8.394;2023-11-19T00:27:33;0.88;;;0.68;;
45970;SDS011;31681;48.982;8.394;2023-11-19T00:29:58;2.70;;;0.70;;
45970;SDS011;31681;48.982;8.394;2023-11-19T00:32:23;0.63;;;0.60;;
45970;SDS011;31681;48.982;8.394;2023-11-19T00:34:49;0.85;;;0.68;;
45970;SDS011;31681;48.982;8.394;2023-11-19T00:37:14;0.50;;;0.50;;
45970;SDS011;31681;48.982;8.394;2023-11-19T00:39:40;0.80;;;0.60;;
45970;SDS011;31681;48.982;8.394;2023-11-19T00:42:06;0.55;;;0.55;;
45970;SDS011;31681;48.982;8.394;2023-11-19T00:44:31;0.65;;;0.60;;
45970;SDS011;31681;48.982;8.394;2023-11-19T00:46:56;3.33;;;1.10;;
45970;SDS011;31681;48.982;8.394;2023-11-19T00:49:21;0.68;;;0.55;;
45970;SDS011;31681;48.982;8.394;2023-11-19T00:51:47;0.50;;;0.50;;
45970;SDS011;31681;48.982;8.394;2023-11-19T00:54:12;0.60;;;0.60;;
45970;SDS011;31681;48.982;8.394;2023-11-19T00:56:37;0.50;;;0.50;;
45970;SDS011;31681;48.982;8.394;2023-11-19T00:59:02;0.60;;;0.60;;
45970;SDS011;31681;48.982;8.394;2023-11-19T01:04:04;0.73;;;0.68;;
45970;SDS011;31681;48.982;8.394;2023-11-19T01:06:30;0.82;;;0.50;;
45970;SDS011;31681;48.982;8.394;2023-11-19T01:08:55;0.52;;;0.52;;
45970;SDS011;31681;48.982;8.394;2023-11-19T01:11:25;0.40;;;0.40;;
45970;SDS011;31681;48.982;8.394;2023-11-19T01:13:50;0.40;;;0.40;;
45970;SDS011;31681;48.982;8.394;2023-11-19T01:16:16;0.60;;;0.40;;
45970;SDS011;31681;48.982;8.394;2023-11-19T01:18:41;1.05;;;0.65;;
45970;SDS011;31681;48.982;8.394;2023-11-19T01:21:07;0.60;;;0.60;;
45970;SDS011;31681;48.982;8.394;2023-11-19T01:23:32;0.40;;;0.40;;
45970;SDS011;31681;48.982;8.394;2023-11-19T01:25:58;0.45;;;0.45;;
45970;SDS011;31681;48.982;8.394;2023-11-19T01:28:24;1.17;;;0.77;;
45970;SDS011;31681;48.982;8.394;2023-11-19T01:30:52;0.60;;;0.57;;
45970;SDS011;31681;48.982;8.394;2023-11-19T01:33:18;0.73;;;0.65;;
45970;SDS011;31681;48.982;8.394;2023-11-19T01:35:43;0.77;;;0.47;;
45970;SDS011;31681;48.982;8.394;2023-11-19T01:38:08;0.50;;;0.50;;
45970;SDS011;31681;48.982;8.394;2023-11-19T01:40:34;2.08;;;0.50;;
45970;SDS011;31681;48.982;8.394;2023-11-19T01:42:59;0.73;;;0.40;;
45970;SDS011;31681;48.982;8.394;2023-11-19T01:45:29;0.73;;;0.50;;
45970;SDS011;31681;48.982;8.394;2023-11-19T01:47:56;0.70;;;0.60;;
45970;SDS011;31681;48.982;8.394;2023-11-19T01:50:22;1.05;;;0.60;;
45970;SDS011;31681;48.982;8.394;2023-11-19T01:52:47;0.65;;;0.60;;
45970;SDS011;31681;48.982;8.394;2023-11-19T01:55:13;0.60;;;0.60;;
45970;SDS011;31681;48.982;8.394;2023-11-19T01:57:39;0.60;;;0.50;;
45970;SDS011;31681;48.982;8.394;2023-11-19T02:00:06;0.73;;;0.65;;
45970;SDS011;31681;48.982;8.394;2023-11-19T02:02:39;0.70;;;0.60;;
45970;SDS011;31681;48.982;8.394;2023-11-19T02:05:05;1.25;;;0.77;;
45970;SDS011;31681;48.982;8.394;2023-11-19T02:07:30;3.00;;;0.70;;
45970;SDS011;31681;48.982;8.394;2023-11-19T02:09:56;1.45;;;0.70;;
45970;SDS011;31681;48.982;8.394;2023-11-19T02:12:24;1.00;;;0.57;;
45970;SDS011;31681;48.982;8.394;2023-11-19T02:14:50;0.80;;;0.68;;
45970;SDS011;31681;48.982;8.394;2023-11-19T02:17:27;1.35;;;0.60;;
45970;SDS011;31681;48.982;8.394;2023-11-19T02:19:53;0.60;;;0.60;;
45970;SDS011;31681;48.982;8.394;2023-11-19T02:22:19;0.75;;;0.70;;
45970;SDS011;31681;48.982;8.394;2023-11-19T02:24:44;2.55;;;0.80;;
45970;SDS011;31681;48.982;8.394;2023-11-19T02:27:15;0.90;;;0.80;;
45970;SDS011;31681;48.982;8.394;2023-11-19T02:29:41;0.70;;;0.70;;
45970;SDS011;31681;48.982;8.394;2023-11-19T02:32:06;1.38;;;1.20;;
45970;SDS011;31681;48.982;8.394;2023-11-19T02:34:34;5.15;;;0.88;;
45970;SDS011;31681;48.982;8.394;2023-11-19T02:37:00;0.75;;;0.75;;
45970;SDS011;31681;48.982;8.394;2023-11-19T02:39:25;1.50;;;0.98;;
45970;SDS011;31681;48.982;8.394;2023-11-19T02:41:51;1.45;;;0.90;;
45970;SDS011;31681;48.982;8.394;2023-11-19T02:44:18;0.93;;;0.50;;
45970;SDS011;31681;48.982;8.394;2023-11-19T02:46:43;0.95;;;0.80;;
45970;SDS011;31681;48.982;8.394;2023-11-19T02:49:08;1.20;;;0.80;;
45970;SDS011;31681;48.982;8.394;2023-11-19T02:51:33;1.73;;;0.90;;
45970;SDS011;31681;48.982;8.394;2023-11-19T02:54:00;0.93;;;0.80;;
45970;SDS011;31681;48.982;8.394;2023-11-19T02:56:25;1.00;;;0.90;;
45970;SDS011;31681;48.982;8.394;2023-11-19T02:58:51;1.02;;;0.82;;
45970;SDS011;31681;48.982;8.394;2023-11-19T03:01:23;1.23;;;0.90;;
45970;SDS011;31681;48.982;8.394;2023-11-19T03:03:54;1.48;;;1.05;;
45970;SDS011;31681;48.982;8.394;2023-11-19T03:06:22;1.75;;;0.70;;
45970;SDS011;31681;48.982;8.394;2023-11-19T03:08:48;1.83;;;1.05;;
45970;SDS011;31681;48.982;8.394;2023-11-19T03:11:13;1.90;;;1.00;;
45970;SDS011;31681;48.982;8.394;2023-11-19T03:13:39;6.00;;;1.20;;
45970;SDS011;31681;48.982;8.394;2023-11-19T03:16:04;1.10;;;1.00;;
45970;SDS011;31681;48.982;8.394;2023-11-19T03:18:30;1.00;;;0.73;;
45970;SDS011;31681;48.982;8.394;2023-11-19T03:20:55;2.28;;;0.80;;
45970;SDS011;31681;48.982;8.394;2023-11-19T03:23:20;1.08;;;0.85;;
45970;SDS011;31681;48.982;8.394;2023-11-19T03:25:46;1.05;;;0.93;;
45970;SDS011;31681;48.982;8.394;2023-11-19T03:28:11;2.13;;;0.75;;
45970;SDS011;31681;48.982;8.394;2023-11-19T03:30:36;1.13;;;1.02;;
45970;SDS011;31681;48.982;8.394;2023-11-19T03:33:02;1.00;;;0.90;;
45970;SDS011;31681;48.982;8.394;2023-11-19T03:35:28;2.00;;;1.00;;
45970;SDS011;31681;48.982;8.394;2023-11-19T03:37:53;1.20;;;1.00;;
45970;SDS011;31681;48.982;8.394;2023-11-19T03:40:18;1.35;;;1.00;;
45970;SDS011;31681;48.982;8.394;2023-11-19T03:42:44;2.20;;;0.90;;
45970;SDS011;31681;48.982;8.394;2023-11-19T03:45:10;2.90;;;0.90;;
45970;SDS011;31681;48.982;8.394;2023-11-19T03:47:35;1.00;;;0.73;;
45970;SDS011;31681;48.982;8.394;2023-11-19T03:50:00;0.93;;;0.90;;
45970;SDS011;31681;48.982;8.394;2023-11-19T03:52:26;1.02;;;0.93;;
45970;SDS011;31681;48.982;8.394;2023-11-19T03:54:54;2.50;;;1.00;;
45970;SDS011;31681;48.982;8.394;2023-11-19T03:57:21;2.92;;;0.90;;
45970;SDS011;31681;48.982;8.394;2023-11-19T03:59:46;0.90;;;0.82;;
45970;SDS011;31681;48.982;8.394;2023-11-19T04:02:11;1.60;;;0.70;;
45970;SDS011;31681;48.982;8.394;2023-11-19T04:04:37;0.70;;;0.70;;
45970;SDS011;31681;48.982;8.394;2023-11-19T04:07:05;0.90;;;0.90;;
45970;SDS011;31681;48.982;8.394;2023-11-19T04:09:30;1.92;;;0.98;;
45970;SDS011;31681;48.982;8.394;2023-11-19T04:11:58;0.90;;;0.90;;
45970;SDS011;31681;48.982;8.394;2023-11-19T04:14:23;2.45;;;0.85;;
45970;SDS011;31681;48.982;8.394;2023-11-19T04:16:48;1.10;;;0.90;;
45970;SDS011;31681;48.982;8.394;2023-11-19T04:19:14;0.75;;;0.70;;
45970;SDS011;31681;48.982;8.394;2023-11-19T04:21:42;0.80;;;0.68;;
45970;SDS011;31681;48.982;8.394;2023-11-19T04:24:11;3.22;;;0.60;;
45970;SDS011;31681;48.982;8.394;2023-11-19T04:26:40;1.38;;;0.60;;
45970;SDS011;31681;48.982;8.394;2023-11-19T04:29:05;1.02;;;0.93;;
45970;SDS011;31681;48.982;8.394;2023-11-19T04:31:31;1.50;;;0.68;;
45970;SDS011;31681;48.982;8.394;2023-11-19T04:33:56;0.60;;;0.60;;
45970;SDS011;31681;48.982;8.394;2023-11-19T04:36:22;1.48;;;0.90;;
45970;SDS011;31681;48.982;8.394;2023-11-19T04:38:49;0.77;;;0.70;;
45970;SDS011;31681;48.982;8.394;2023-11-19T04:41:14;1.05;;;0.70;;
45970;SDS011;31681;48.982;8.394;2023-11-19T04:43:40;0.88;;;0.60;;
45970;SDS011;31681;48.982;8.394;2023-11-19T04:46:05;0.80;;;0.80;;
45970;SDS011;31681;48.982;8.394;2023-11-19T04:48:30;1.00;;;0.80;;
45970;SDS011;31681;48.982;8.394;2023-11-19T04:50:56;0.60;;;0.60;;
45970;SDS011;31681;48.982;8.394;2023-11-19T04:53:21;1.80;;;0.60;;
45970;SDS011;31681;48.982;8.394;2023-11-19T04:55:46;1.20;;;0.60;;
45970;SDS011;31681;48.982;8.394;2023-11-19T04:58:12;1.63;;;0.63;;
45970;SDS011;31681;48.982;8.394;2023-11-19T05:00:37;0.70;;;0.60;;
45970;SDS011;31681;48.982;8.394;2023-11-19T05:03:03;1.25;;;0.70;;
45970;SDS011;31681;48.982;8.394;2023-11-19T05:05:29;0.70;;;0.60;;
45970;SDS011;31681;48.982;8.394;2023-11-19T05:07:54;0.88;;;0.80;;
45970;SDS011;31681;48.982;8.394;2023-11-19T05:10:20;0.50;;;0.50;;
45970;SDS011;31681;48.982;8.394;2023-11-19T05:12:45;0.43;;;0.43;;
45970;SDS011;31681;48.982;8.394;2023-11-19T05:15:10;0.82;;;0.50;;
45970;SDS011;31681;48.982;8.394;2023-11-19T05:17:37;1.98;;;0.60;;
45970;SDS011;31681;48.982;8.394;2023-11-19T05:20:02;1.48;;;0.50;;
45970;SDS011;31681;48.982;8.394;2023-11-19T05:22:27;0.90;;;0.52;;
45970;SDS011;31681;48.982;8.394;2023-11-19T05:24:52;1.05;;;0.50;;
45970;SDS011;31681;48.982;8.394;2023-11-19T05:27:18;1.40;;;0.50;;
45970;SDS011;31681;48.982;8.394;2023-11-19T05:29:43;1.45;;;0.50;;
45970;SDS011;31681;48.982;8.394;2023-11-19T05:32:09;0.55;;;0.50;;
45970;SDS011;31681;48.982;8.394;2023-11-19T05:34:34;1.15;;;0.47;;
45970;SDS011;31681;48.982;8.394;2023-11-19T05:36:59;0.40;;;0.40;;
45970;SDS011;31681;48.982;8.394;2023-11-19T05:39:25;0.50;;;0.50;;
45970;SDS011;31681;48.982;8.394;2023-11-19T05:41:50;1.50;;;0.50;;
45970;SDS011;31681;48.982;8.394;2023-11-19T05:44:15;0.50;;;0.40;;
45970;SDS011;31681;48.982;8.394;2023-11-19T05:46:41;0.28;;;0.28;;
45970;SDS011;31681;48.982;8.394;2023-11-19T05:49:08;1.08;;;0.50;;
45970;SDS011;31681;48.982;8.394;2023-11-19T05:51:36;1.10;;;0.50;;
45970;SDS011;31681;48.982;8.394;2023-11-19T05:54:01;0.50;;;0.40;;
45970;SDS011;31681;48.982;8.394;2023-11-19T05:56:27;0.40;;;0.40;;
45970;SDS011;31681;48.982;8.394;2023-11-19T05:58:57;0.40;;;0.38;;
45970;SDS011;31681;48.982;8.394;2023-11-19T06:01:22;0.40;;;0.40;;
45970;SDS011;31681;48.982;8.394;2023-11-19T06:03:48;0.35;;;0.30;;
45970;SDS011;31681;48.982;8.394;2023-11-19T06:06:15;0.30;;;0.30;;
45970;SDS011;31681;48.982;8.394;2023-11-19T06:08:40;0.40;;;0.40;;
45970;SDS011;31681;48.982;8.394;2023-11-19T06:11:05;0.40;;;0.40;;
45970;SDS011;31681;48.982;8.394;2023-11-19T06:13:31;1.15;;;0.40;;
45970;SDS011;31681;48.982;8.394;2023-11-19T06:15:56;0.50;;;0.47;;
45970;SDS011;31681;48.982;8.394;2023-11-19T06:18:21;0.40;;;0.40;;
45970;SDS011;31681;48.982;8.394;2023-11-19T06:20:48;0.60;;;0.60;;
45970;SDS011;31681;48.982;8.394;2023-11-19T06:23:14;0.50;;;0.47;;
45970;SDS011;31681;48.982;8.394;2023-11-19T06:25:40;0.93;;;0.55;;
45970;SDS011;31681;48.982;8.394;2023-11-19T06:28:05;1.25;;;0.80;;
45970;SDS011;31681;48.982;8.394;2023-11-19T06:30:30;1.13;;;0.47;;
45970;SDS011;31681;48.982;8.394;2023-11-19T06:32:57;0.43;;;0.40;;
45970;SDS011;31681;48.982;8.394;2023-11-19T06:35:23;0.40;;;0.30;;
45970;SDS011;31681;48.982;8.394;2023-11-19T06:37:48;0.50;;;0.50;;
45970;SDS011;31681;48.982;8.394;2023-11-19T06:40:13;2.05;;;0.43;;
45970;SDS011;31681;48.982;8.394;2023-11-19T06:42:40;0.60;;;0.40;;
45970;SDS011;31681;48.982;8.394;2023-11-19T06:45:06;0.80;;;0.50;;
45970;SDS011;31681;48.982;8.394;2023-11-19T06:47:31;0.35;;;0.32;;
45970;SDS011;31681;48.982;8.394;2023-11-19T06:49:58;0.40;;;0.35;;
45970;SDS011;31681;48.982;8.394;2023-11-19T06:52:23;0.50;;;0.30;;
45970;SDS011;31681;48.982;8.394;2023-11-19T06:54:49;0.30;;;0.30;;
45970;SDS011;31681;48.982;8.394;2023-11-19T06:57:14;0.40;;;0.40;;
45970;SDS011;31681;48.982;8.394;2023-11-19T06:59:40;0.55;;;0.40;;
45970;SDS011;31681;48.982;8.394;2023-11-19T07:02:05;1.10;;;0.40;;
45970;SDS011;31681;48.982;8.394;2023-11-19T07:04:31;0.40;;;0.40;;
45970;SDS011;31681;48.982;8.394;2023-11-19T07:06:58;0.38;;;0.30;;
45970;SDS011;31681;48.982;8.394;2023-11-19T07:09:23;0.43;;;0.43;;
45970;SDS011;31681;48.982;8.394;2023-11-19T07:11:49;0.63;;;0.40;;
45970;SDS011;31681;48.982;8.394;2023-11-19T07:14:16;0.40;;;0.40;;
45970;SDS011;31681;48.982;8.394;2023-11-19T07:16:42;0.55;;;0.50;;
45970;SDS011;31681;48.982;8.394;2023-11-19T07:19:07;1.15;;;0.30;;
45970;SDS011;31681;48.982;8.394;2023-11-19T07:21:33;0.30;;;0.30;;
45970;SDS011;31681;48.982;8.394;2023-11-19T07:23:58;1.10;;;0.43;;
45970;SDS011;31681;48.982;8.394;2023-11-19T07:26:24;0.30;;;0.30;;
45970;SDS011;31681;48.982;8.394;2023-11-19T07:28:49;0.70;;;0.43;;
45970;SDS011;31681;48.982;8.394;2023-11-19T07:31:15;0.30;;;0.30;;
45970;SDS011;31681;48.982;8.394;2023-11-19T07:33:40;0.40;;;0.30;;
45970;SDS011;31681;48.982;8.394;2023-11-19T07:36:08;0.20;;;0.20;;
45970;SDS011;31681;48.982;8.394;2023-11-19T07:38:33;3.22;;;0.40;;
45970;SDS011;31681;48.982;8.394;2023-11-19T07:40:58;0.40;;;0.32;;
45970;SDS011;31681;48.982;8.394;2023-11-19T07:43:24;0.43;;;0.30;;
45970;SDS011;31681;48.982;8.394;2023-11-19T07:45:49;0.50;;;0.50;;
45970;SDS011;31681;48.982;8.394;2023-11-19T07:48:14;0.40;;;0.40;;
45970;SDS011;31681;48.982;8.394;2023-11-19T07:50:40;1.95;;;0.30;;
45970;SDS011;31681;48.982;8.394;2023-11-19T07:53:06;0.40;;;0.40;;
45970;SDS011;31681;48.982;8.394;2023-11-19T07:55:32;0.68;;;0.30;;
45970;SDS011;31681;48.982;8.394;2023-11-19T07:57:57;0.30;;;0.30;;
45970;SDS011;31681;48.982;8.394;2023-11-19T08:00:23;0.30;;;0.30;;
45970;SDS011;31681;48.982;8.394;2023-11-19T08:02:48;0.50;;;0.50;;
45970;SDS011;31681;48.982;8.394;2023-11-19T08:05:13;1.10;;;0.30;;
45970;SDS011;31681;48.982;8.394;2023-11-19T08:07:38;0.40;;;0.40;;
45970;SDS011;31681;48.982;8.394;2023-11-19T08:10:04;0.32;;;0.30;;
45970;SDS011;31681;48.982;8.394;2023-11-19T08:12:30;0.43;;;0.40;;
45970;SDS011;31681;48.982;8.394;2023-11-19T08:14:56;0.40;;;0.40;;
45970;SDS011;31681;48.982;8.394;2023-11-19T08:17:21;0.50;;;0.30;;
45970;SDS011;31681;48.982;8.394;2023-11-19T08:19:48;0.68;;;0.50;;
45970;SDS011;31681;48.982;8.394;2023-11-19T08:22:13;0.30;;;0.30;;
45970;SDS011;31681;48.982;8.394;2023-11-19T08:24:38;0.77;;;0.43;;
45970;SDS011;31681;48.982;8.394;2023-11-19T08:27:04;1.48;;;0.40;;
45970;SDS011;31681;48.982;8.394;2023-11-19T08:29:29;1.08;;;0.50;;
45970;SDS011;31681;48.982;8.394;2023-11-19T08:31:55;0.50;;;0.43;;
45970;SDS011;31681;48.982;8.394;2023-11-19T08:34:20;0.98;;;0.30;;
45970;SDS011;31681;48.982;8.394;2023-11-19T08:36:45;1.05;;;0.47;;
45970;SDS011;31681;48.982;8.394;2023-11-19T08:39:11;0.63;;;0.40;;
45970;SDS011;31681;48.982;8.394;2023-11-19T08:41:36;1.60;;;0.40;;
45970;SDS011;31681;48.982;8.394;2023-11-19T08:44:03;0.40;;;0.40;;
45970;SDS011;31681;48.982;8.394;2023-11-19T08:46:28;1.15;;;0.40;;
45970;SDS011;31681;48.982;8.394;2023-11-19T08:48:53;1.20;;;0.57;;
45970;SDS011;31681;48.982;8.394;2023-11-19T08:51:22;1.65;;;0.40;;
45970;SDS011;31681;48.982;8.394;2023-11-19T08:53:47;0.90;;;0.43;;
45970;SDS011;31681;48.982;8.394;2023-11-19T08:56:13;1.02;;;0.60;;
45970;SDS011;31681;48.982;8.394;2023-11-19T08:58:39;1.23;;;0.60;;
45970;SDS011;31681;48.982;8.394;2023-11-19T09:01:05;0.80;;;0.40;;
45970;SDS011;31681;48.982;8.394;2023-11-19T09:03:31;0.60;;;0.60;;
45970;SDS011;31681;48.982;8.394;2023-11-19T09:05:56;0.47;;;0.47;;
45970;SDS011;31681;48.982;8.394;2023-11-19T09:08:21;1.60;;;0.60;;
45970;SDS011;31681;48.982;8.394;2023-11-19T09:10:47;1.63;;;0.60;;
45970;SDS011;31681;48.982;8.394;2023-11-19T09:13:12;0.95;;;0.45;;
45970;SDS011;31681;48.982;8.394;2023-11-19T09:15:37;1.85;;;0.60;;
45970;SDS011;31681;48.982;8.394;2023-11-19T09:18:02;0.63;;;0.63;;
45970;SDS011;31681;48.982;8.394;2023-11-19T09:20:29;0.50;;;0.50;;
45970;SDS011;31681;48.982;8.394;2023-11-19T09:23:02;1.52;;;0.55;;
45970;SDS011;31681;48.982;8.394;2023-11-19T09:25:27;0.75;;;0.47;;
45970;SDS011;31681;48.982;8.394;2023-11-19T09:27:53;0.65;;;0.50;;
45970;SDS011;31681;48.982;8.394;2023-11-19T09:30:18;1.42;;;0.55;;
45970;SDS011;31681;48.982;8.394;2023-11-19T09:32:44;0.70;;;0.70;;
45970;SDS011;31681;48.982;8.394;2023-11-19T09:35:09;0.50;;;0.50;;
45970;SDS011;31681;48.982;8.394;2023-11-19T09:37:38;0.68;;;0.50;;
45970;SDS011;31681;48.982;8.394;2023-11-19T09:40:04;1.10;;;0.60;;
45970;SDS011;31681;48.982;8.394;2023-11-19T09:42:29;0.57;;;0.57;;
45970;SDS011;31681;48.982;8.394;2023-11-19T09:44:56;0.55;;;0.40;;
45970;SDS011;31681;48.982;8.394;2023-11-19T09:47:22;0.60;;;0.60;;
45970;SDS011;31681;48.982;8.394;2023-11-19T09:49:48;0.40;;;0.40;;
45970;SDS011;31681;48.982;8.394;2023-11-19T09:52:15;0.50;;;0.50;;
45970;SDS011;31681;48.982;8.394;2023-11-19T09:54:40;0.50;;;0.50;;
45970;SDS011;31681;48.982;8.394;2023-11-19T09:57:05;1.35;;;0.60;;
45970;SDS011;31681;48.982;8.394;2023-11-19T09:59:32;0.52;;;0.40;;
45970;SDS011;31681;48.982;8.394;2023-11-19T10:01:58;0.40;;;0.40;;
45970;SDS011;31681;48.982;8.394;2023-11-19T10:04:24;2.20;;;0.60;;
45970;SDS011;31681;48.982;8.394;2023-11-19T10:06:50;0.50;;;0.40;;
45970;SDS011;31681;48.982;8.394;2023-11-19T10:09:16;2.13;;;0.52;;
45970;SDS011;31681;48.982;8.394;2023-11-19T10:11:41;0.90;;;0.55;;
45970;SDS011;31681;48.982;8.394;2023-11-19T10:14:07;1.15;;;0.70;;
45970;SDS011;31681;48.982;8.394;2023-11-19T10:16:34;0.60;;;0.57;;
45970;SDS011;31681;48.982;8.394;2023-11-19T10:18:59;1.45;;;0.63;;
45970;SDS011;31681;48.982;8.394;2023-11-19T10:21:24;0.95;;;0.50;;
45970;SDS011;31681;48.982;8.394;2023-11-19T10:23:50;0.43;;;0.43;;
45970;SDS011;31681;48.982;8.394;2023-11-19T10:26:17;0.60;;;0.50;;
45970;SDS011;31681;48.982;8.394;2023-11-19T10:28:42;1.33;;;0.65;;
45970;SDS011;31681;48.982;8.394;2023-11-19T10:31:11;0.70;;;0.45;;
45970;SDS011;31681;48.982;8.394;2023-11-19T10:33:38;0.55;;;0.40;;
45970;SDS011;31681;48.982;8.394;2023-11-19T10:36:03;0.60;;;0.40;;
45970;SDS011;31681;48.982;8.394;2023-11-19T10:38:28;0.60;;;0.57;;
45970;SDS011;31681;48.982;8.394;2023-11-19T10:40:54;1.70;;;0.68;;
45970;SDS011;31681;48.982;8.394;2023-11-19T10:43:20;2.00;;;0.70;;
45970;SDS011;31681;48.982;8.394;2023-11-19T10:45:47;0.68;;;0.57;;
45970;SDS011;31681;48.982;8.394;2023-11-19T10:48:12;0.82;;;0.60;;
45970;SDS011;31681;48.982;8.394;2023-11-19T10:50:38;0.85;;;0.57;;
45970;SDS011;31681;48.982;8.394;2023-11-19T10:53:04;1.48;;;0.50;;
45970;SDS011;31681;48.982;8.394;2023-11-19T10:55:31;2.05;;;0.82;;
45970;SDS011;31681;48.982;8.394;2023-11-19T10:58:00;1.75;;;0.52;;
45970;SDS011;31681;48.982;8.394;2023-11-19T11:00:26;0.63;;;0.52;;
45970;SDS011;31681;48.982;8.394;2023-11-19T11:02:56;3.13;;;0.80;;
45970;SDS011;31681;48.982;8.394;2023-11-19T11:05:22;1.13;;;0.73;;
45970;SDS011;31681;48.982;8.394;2023-11-19T11:07:47;1.58;;;0.60;;
45970;SDS011;31681;48.982;8.394;2023-11-19T11:10:13;0.93;;;0.60;;
45970;SDS011;31681;48.982;8.394;2023-11-19T11:12:40;0.93;;;0.75;;
45970;SDS011;31681;48.982;8.394;2023-11-19T11:15:06;2.63;;;1.02;;
45970;SDS011;31681;48.982;8.394;2023-11-19T11:17:32;1.10;;;0.60;;
45970;SDS011;31681;48.982;8.394;2023-11-19T11:19:58;2.22;;;0.80;;
45970;SDS011;31681;48.982;8.394;2023-11-19T11:22:23;1.67;;;0.57;;
45970;SDS011;31681;48.982;8.394;2023-11-19T11:32:30;1.27;;;0.80;;
45970;SDS011;31681;48.982;8.394;2023-11-19T11:40:13;0.60;;;0.57;;
45970;SDS011;31681;48.982;8.394;2023-11-19T11:42:39;0.80;;;0.70;;
45970;SDS011;31681;48.982;8.394;2023-11-19T11:45:11;2.00;;;0.90;;
45970;SDS011;31681;48.982;8.394;2023-11-19T11:55:23;1.25;;;0.80;;
45970;SDS011;31681;48.982;8.394;2023-11-19T11:57:48;2.17;;;0.98;;
45970;SDS011;31681;48.982;8.394;2023-11-19T12:00:21;1.20;;;1.00;;
45970;SDS011;31681;48.982;8.394;2023-11-19T12:02:46;1.98;;;0.60;;
45970;SDS011;31681;48.982;8.394;2023-11-19T12:05:11;1.63;;;0.68;;
45970;SDS011;31681;48.982;8.394;2023-11-19T12:07:38;1.52;;;0.85;;
45970;SDS011;31681;48.982;8.394;2023-11-19T12:10:08;2.17;;;0.80;;
45970;SDS011;31681;48.982;8.394;2023-11-19T12:12:33;2.78;;;0.85;;
45970;SDS011;31681;48.982;8.394;2023-11-19T12:15:04;2.65;;;0.90;;
45970;SDS011;31681;48.982;8.394;2023-11-19T12:19:59;2.25;;;0.77;;
45970;SDS011;31681;48.982;8.394;2023-11-19T12:22:24;1.92;;;0.73;;
45970;SDS011;31681;48.982;8.394;2023-11-19T12:24:50;0.98;;;0.70;;
45970;SDS011;31681;48.982;8.394;2023-11-19T12:27:16;1.23;;;0.60;;
45970;SDS011;31681;48.982;8.394;2023-11-19T12:29:42;0.60;;;0.60;;
45970;SDS011;31681;48.982;8.394;2023-11-19T12:32:09;0.75;;;0.75;;
45970;SDS011;31681;48.982;8.394;2023-11-19T12:34:34;1.50;;;0.82;;
45970;SDS011;31681;48.982;8.394;2023-11-19T12:37:03;0.85;;;0.60;;
45970;SDS011;31681;48.982;8.394;2023-11-19T12:39:32;4.47;;;1.13;;
45970;SDS011;31681;48.982;8.394;2023-11-19T12:41:57;1.10;;;0.77;;
45970;SDS011;31681;48.982;8.394;2023-11-19T12:44:25;1.48;;;0.90;;
45970;SDS011;31681;48.982;8.394;2023-11-19T12:46:59;0.98;;;0.85;;
45970;SDS011;31681;48.982;8.394;2023-11-19T12:49:25;2.78;;;0.95;;
45970;SDS011;31681;48.982;8.394;2023-11-19T12:51:50;1.45;;;0.70;;
45970;SDS011;31681;48.982;8.394;2023-11-19T12:54:15;4.53;;;1.08;;
45970;SDS011;31681;48.982;8.394;2023-11-19T12:56:51;2.20;;;0.82;;
45970;SDS011;31681;48.982;8.394;2023-11-19T12:59:16;0.90;;;0.70;;
45970;SDS011;31681;48.982;8.394;2023-11-19T13:01:42;2.10;;;0.70;;
45970;SDS011;31681;48.982;8.394;2023-11-19T13:04:18;2.88;;;0.77;;
45970;SDS011;31681;48.982;8.394;2023-11-19T13:06:44;3.17;;;0.70;;
45970;SDS011;31681;48.982;8.394;2023-11-19T13:09:12;0.93;;;0.70;;
45970;SDS011;31681;48.982;8.394;2023-11-19T13:11:46;2.42;;;1.00;;
45970;SDS011;31681;48.982;8.394;2023-11-19T13:14:11;0.65;;;0.60;;
45970;SDS011;31681;48.982;8.394;2023-11-19T13:16:37;4.07;;;0.60;;
45970;SDS011;31681;48.982;8.394;2023-11-19T13:19:03;2.80;;;0.68;;
45970;SDS011;31681;48.982;8.394;2023-11-19T13:21:29;3.53;;;0.70;;
45970;SDS011;31681;48.982;8.394;2023-11-19T13:23:55;1.48;;;0.75;;
45970;SDS011;31681;48.982;8.394;2023-11-19T13:26:20;2.75;;;0.70;;
45970;SDS011;31681;48.982;8.394;2023-11-19T13:28:45;1.55;;;0.52;;
45970;SDS011;31681;48.982;8.394;2023-11-19T13:31:11;1.98;;;0.73;;
45970;SDS011;31681;48.982;8.394;2023-11-19T13:33:36;1.95;;;0.63;;
45970;SDS011;31681;48.982;8.394;2023-11-19T13:36:02;1.73;;;0.82;;
45970;SDS011;31681;48.982;8.394;2023-11-19T13:38:35;1.38;;;0.70;;
45970;SDS011;31681;48.982;8.394;2023-11-19T13:41:02;2.53;;;0.60;;
45970;SDS011;31681;48.982;8.394;2023-11-19T13:43:32;3.17;;;0.80;;
45970;SDS011;31681;48.982;8.394;2023-11-19T13:59:42;0.50;;;0.50;;
45970;SDS011;31681;48.982;8.394;2023-11-19T14:02:07;1.38;;;0.75;;
45970;SDS011;31681;48.982;8.394;2023-11-19T14:04:33;1.23;;;0.60;;
45970;SDS011;31681;48.982;8.394;2023-11-19T14:06:59;1.20;;;0.70;;
45970;SDS011;31681;48.982;8.394;2023-11-19T14:09:24;1.98;;;0.80;;
45970;SDS011;31681;48.982;8.394;2023-11-19T14:11:49;2.72;;;0.95;;
45970;SDS011;31681;48.982;8.394;2023-11-19T14:14:16;0.88;;;0.68;;
45970;SDS011;31681;48.982;8.394;2023-11-19T14:16:41;1.05;;;0.80;;
45970;SDS011;31681;48.982;8.394;2023-11-19T14:19:07;1.17;;;0.70;;
45970;SDS011;31681;48.982;8.394;2023-11-19T14:21:32;1.83;;;0.70;;
45970;SDS011;31681;48.982;8.394;2023-11-19T14:23:57;1.17;;;0.80;;
45970;SDS011;31681;48.982;8.394;2023-11-19T14:26:22;3.30;;;0.73;;
45970;SDS011;31681;48.982;8.394;2023-11-19T14:28:48;1.95;;;0.65;;
45970;SDS011;31681;48.982;8.394;2023-11-19T14:31:13;0.98;;;0.60;;
45970;SDS011;31681;48.982;8.394;2023-11-19T14:33:38;4.38;;;0.93;;
45970;SDS011;31681;48.982;8.394;2023-11-19T14:36:04;2.05;;;0.80;;
45970;SDS011;31681;48.982;8.394;2023-11-19T14:38:29;0.70;;;0.60;;
45970;SDS011;31681;48.982;8.394;2023-11-19T14:40:54;1.25;;;0.70;;
45970;SDS011;31681;48.982;8.394;2023-11-19T14:43:20;1.23;;;0.55;;
45970;SDS011;31681;48.982;8.394;2023-11-19T14:45:45;2.25;;;0.75;;
45970;SDS011;31681;48.982;8.394;2023-11-19T14:48:10;2.28;;;0.63;;
45970;SDS011;31681;48.982;8.394;2023-11-19T14:50:36;4.15;;;0.75;;
45970;SDS011;31681;48.982;8.394;2023-11-19T14:53:01;1.85;;;0.80;;
45970;SDS011;31681;48.982;8.394;2023-11-19T14:55:27;1.45;;;0.80;;
45970;SDS011;31681;48.982;8.394;2023-11-19T14:57:52;4.20;;;1.65;;
45970;SDS011;31681;48.982;8.394;2023-11-19T15:00:17;1.75;;;0.73;;
45970;SDS011;31681;48.982;8.394;2023-11-19T15:02:43;2.35;;;0.55;;
45970;SDS011;31681;48.982;8.394;2023-11-19T15:05:08;1.45;;;0.70;;
45970;SDS011;31681;48.982;8.394;2023-11-19T15:07:37;1.25;;;0.70;;
45970;SDS011;31681;48.982;8.394;2023-11-19T15:10:02;1.73;;;0.63;;
45970;SDS011;31681;48.982;8.394;2023-11-19T15:12:28;1.02;;;0.68;;
45970;SDS011;31681;48.982;8.394;2023-11-19T15:14:53;1.58;;;0.60;;
45970;SDS011;31681;48.982;8.394;2023-11-19T15:17:18;2.03;;;0.80;;
45970;SDS011;31681;48.982;8.394;2023-11-19T15:19:44;2.25;;;0.82;;